sensor_id;sensor_type;location;lat;lon;timestamp;P1;durP1;ratioP1;P2;durP2;ratioP2
22094;SDS011;24083;55.670;37.568;2023-06-22T00:01:52;6.18;;;3.08;;
22094;SDS011;24083;55.670;37.568;2023-06-22T00:04:18;9.93;;;2.85;;
22094;SDS011;24083;55.670;37.568;2023-06-22T00:06:46;4.25;;;2.80;;
22094;SDS011;24083;55.670;37.568;2023-06-22T00:09:24;7.10;;;2.88;;
22094;SDS011;24083;55.670;37.568;2023-06-22T00:14:27;5.75;;;3.00;;
22094;SDS011;24083;55.670;37.568;2023-06-22T00:16:55;6.05;;;3.03;;
22094;SDS011;24083;55.670;37.568;2023-06-22T00:19:22;5.72;;;3.35;;
22094;SDS011;24083;55.670;37.568;2023-06-22T00:21:50;6.68;;;3.10;;
22094;SDS011;24083;55.670;37.568;2023-06-22T00:24:34;6.85;;;2.90;;
22094;SDS011;24083;55.670;37.568;2023-06-22T00:33:57;9.27;;;3.42;;
22094;SDS011;24083;55.670;37.568;2023-06-22T00:36:24;6.95;;;3.55;;
22094;SDS011;24083;55.670;37.568;2023-06-22T00:44:55;8.98;;;3.47;;
22094;SDS011;24083;55.670;37.568;2023-06-22T00:53:41;8.90;;;3.42;;
22094;SDS011;24083;55.670;37.568;2023-06-22T00:56:10;5.13;;;3.13;;
22094;SDS011;24083;55.670;37.568;2023-06-22T01:05:01;7.00;;;3.20;;
22094;SDS011;24083;55.670;37.568;2023-06-22T01:19:57;6.97;;;3.10;;
22094;SDS011;24083;55.670;37.568;2023-06-22T01:28:52;9.23;;;3.53;;
22094;SDS011;24083;55.670;37.568;2023-06-22T01:31:22;7.57;;;3.30;;
22094;SDS011;24083;55.670;37.568;2023-06-22T01:34:12;8.98;;;3.33;;
22094;SDS011;24083;55.670;37.568;2023-06-22T01:36:41;4.65;;;3.33;;
22094;SDS011;24083;55.670;37.568;2023-06-22T01:39:09;6.70;;;3.00;;
22094;SDS011;24083;55.670;37.568;2023-06-22T01:41:38;10.00;;;3.50;;
22094;SDS011;24083;55.670;37.568;2023-06-22T01:51:12;9.63;;;3.35;;
22094;SDS011;24083;55.670;37.568;2023-06-22T01:54:05;7.30;;;3.22;;
22094;SDS011;24083;55.670;37.568;2023-06-22T02:07:42;8.18;;;3.22;;
22094;SDS011;24083;55.670;37.568;2023-06-22T02:10:35;8.35;;;3.25;;
22094;SDS011;24083;55.670;37.568;2023-06-22T02:13:04;9.68;;;3.05;;
22094;SDS011;24083;55.670;37.568;2023-06-22T02:18:45;6.28;;;3.05;;
22094;SDS011;24083;55.670;37.568;2023-06-22T02:21:20;5.90;;;3.05;;
22094;SDS011;24083;55.670;37.568;2023-06-22T02:23:49;6.43;;;3.40;;
22094;SDS011;24083;55.670;37.568;2023-06-22T02:26:30;4.95;;;3.30;;
22094;SDS011;24083;55.670;37.568;2023-06-22T02:34:23;5.68;;;3.17;;
22094;SDS011;24083;55.670;37.568;2023-06-22T02:36:50;7.05;;;3.20;;
22094;SDS011;24083;55.670;37.568;2023-06-22T02:39:23;6.40;;;3.42;;
22094;SDS011;24083;55.670;37.568;2023-06-22T02:41:50;5.97;;;3.90;;
22094;SDS011;24083;55.670;37.568;2023-06-22T02:50:49;5.90;;;3.38;;
22094;SDS011;24083;55.670;37.568;2023-06-22T02:53:33;9.20;;;3.33;;
22094;SDS011;24083;55.670;37.568;2023-06-22T02:55:59;7.20;;;3.40;;
22094;SDS011;24083;55.670;37.568;2023-06-22T02:58:56;7.47;;;3.58;;
22094;SDS011;24083;55.670;37.568;2023-06-22T03:01:29;6.95;;;3.30;;
22094;SDS011;24083;55.670;37.568;2023-06-22T03:03:57;7.13;;;3.45;;
22094;SDS011;24083;55.670;37.568;2023-06-22T03:06:27;7.40;;;3.63;;
22094;SDS011;24083;55.670;37.568;2023-06-22T03:09:00;7.07;;;3.40;;
22094;SDS011;24083;55.670;37.568;2023-06-22T03:11:30;6.72;;;3.25;;
22094;SDS011;24083;55.670;37.568;2023-06-22T03:13:58;7.55;;;3.55;;
22094;SDS011;24083;55.670;37.568;2023-06-22T03:16:25;11.02;;;3.50;;
22094;SDS011;24083;55.670;37.568;2023-06-22T03:18:53;8.00;;;3.10;;
22094;SDS011;24083;55.670;37.568;2023-06-22T03:21:22;8.73;;;3.28;;
22094;SDS011;24083;55.670;37.568;2023-06-22T03:23:49;3.72;;;2.90;;
22094;SDS011;24083;55.670;37.568;2023-06-22T03:26:18;6.97;;;3.08;;
22094;SDS011;24083;55.670;37.568;2023-06-22T03:28:47;8.50;;;3.17;;
22094;SDS011;24083;55.670;37.568;2023-06-22T03:31:16;8.98;;;3.10;;
22094;SDS011;24083;55.670;37.568;2023-06-22T03:33:43;4.65;;;3.10;;
22094;SDS011;24083;55.670;37.568;2023-06-22T03:36:09;8.20;;;3.17;;
22094;SDS011;24083;55.670;37.568;2023-06-22T03:48:00;7.15;;;3.13;;
22094;SDS011;24083;55.670;37.568;2023-06-22T03:50:38;7.32;;;2.90;;
22094;SDS011;24083;55.670;37.568;2023-06-22T03:53:21;6.28;;;3.38;;
22094;SDS011;24083;55.670;37.568;2023-06-22T03:55:48;7.57;;;3.40;;
22094;SDS011;24083;55.670;37.568;2023-06-22T03:58:22;5.40;;;2.85;;
22094;SDS011;24083;55.670;37.568;2023-06-22T04:08:27;4.55;;;2.85;;
22094;SDS011;24083;55.670;37.568;2023-06-22T04:15:21;5.60;;;2.67;;
22094;SDS011;24083;55.670;37.568;2023-06-22T04:18:08;4.32;;;2.10;;
22094;SDS011;24083;55.670;37.568;2023-06-22T04:20:34;7.18;;;2.60;;
22094;SDS011;24083;55.670;37.568;2023-06-22T04:23:12;6.28;;;3.45;;
22094;SDS011;24083;55.670;37.568;2023-06-22T04:42:47;6.95;;;2.90;;
22094;SDS011;24083;55.670;37.568;2023-06-22T04:49:08;5.60;;;2.55;;
22094;SDS011;24083;55.670;37.568;2023-06-22T04:55:01;8.63;;;3.10;;
22094;SDS011;24083;55.670;37.568;2023-06-22T04:57:42;11.18;;;3.10;;
22094;SDS011;24083;55.670;37.568;2023-06-22T05:03:06;7.05;;;3.13;;
22094;SDS011;24083;55.670;37.568;2023-06-22T05:12:22;8.05;;;3.10;;
22094;SDS011;24083;55.670;37.568;2023-06-22T05:22:00;10.07;;;3.67;;
22094;SDS011;24083;55.670;37.568;2023-06-22T05:24:46;5.15;;;2.88;;
22094;SDS011;24083;55.670;37.568;2023-06-22T05:50:18;7.70;;;3.10;;
22094;SDS011;24083;55.670;37.568;2023-06-22T06:04:31;4.07;;;2.92;;
22094;SDS011;24083;55.670;37.568;2023-06-22T06:14:38;7.32;;;3.20;;
22094;SDS011;24083;55.670;37.568;2023-06-22T06:32:44;6.97;;;3.40;;
22094;SDS011;24083;55.670;37.568;2023-06-22T06:38:25;5.53;;;3.13;;
22094;SDS011;24083;55.670;37.568;2023-06-22T06:47:27;4.28;;;3.00;;
22094;SDS011;24083;55.670;37.568;2023-06-22T07:03:22;9.52;;;2.58;;
22094;SDS011;24083;55.670;37.568;2023-06-22T07:09:38;7.82;;;2.47;;
22094;SDS011;24083;55.670;37.568;2023-06-22T07:12:06;5.18;;;3.10;;
22094;SDS011;24083;55.670;37.568;2023-06-22T07:17:18;6.75;;;2.53;;
22094;SDS011;24083;55.670;37.568;2023-06-22T07:19:59;10.55;;;3.10;;
22094;SDS011;24083;55.670;37.568;2023-06-22T07:26:36;5.55;;;2.78;;
22094;SDS011;24083;55.670;37.568;2023-06-22T07:32:03;7.95;;;3.10;;
22094;SDS011;24083;55.670;37.568;2023-06-22T07:41:48;6.22;;;3.08;;
22094;SDS011;24083;55.670;37.568;2023-06-22T07:48:24;5.30;;;3.10;;
22094;SDS011;24083;55.670;37.568;2023-06-22T07:55:10;6.78;;;3.08;;
22094;SDS011;24083;55.670;37.568;2023-06-22T08:01:39;5.13;;;2.78;;
22094;SDS011;24083;55.670;37.568;2023-06-22T08:04:06;7.32;;;3.08;;
22094;SDS011;24083;55.670;37.568;2023-06-22T08:06:33;5.28;;;3.30;;
22094;SDS011;24083;55.670;37.568;2023-06-22T08:12:45;6.90;;;3.00;;
22094;SDS011;24083;55.670;37.568;2023-06-22T08:29:59;10.52;;;3.10;;
22094;SDS011;24083;55.670;37.568;2023-06-22T08:32:34;4.97;;;3.10;;
22094;SDS011;24083;55.670;37.568;2023-06-22T08:41:29;7.22;;;3.17;;
22094;SDS011;24083;55.670;37.568;2023-06-22T08:44:03;8.70;;;3.10;;
22094;SDS011;24083;55.670;37.568;2023-06-22T08:46:36;7.05;;;3.10;;
22094;SDS011;24083;55.670;37.568;2023-06-22T08:49:06;4.57;;;3.08;;
22094;SDS011;24083;55.670;37.568;2023-06-22T08:58:16;3.90;;;2.78;;
22094;SDS011;24083;55.670;37.568;2023-06-22T09:00:47;8.50;;;2.95;;
22094;SDS011;24083;55.670;37.568;2023-06-22T09:13:12;6.45;;;3.05;;
22094;SDS011;24083;55.670;37.568;2023-06-22T09:15:39;4.13;;;2.95;;
22094;SDS011;24083;55.670;37.568;2023-06-22T09:18:09;6.30;;;3.10;;
22094;SDS011;24083;55.670;37.568;2023-06-22T09:21:01;7.03;;;3.20;;
22094;SDS011;24083;55.670;37.568;2023-06-22T09:23:27;4.97;;;3.05;;
22094;SDS011;24083;55.670;37.568;2023-06-22T09:26:28;4.10;;;2.88;;
22094;SDS011;24083;55.670;37.568;2023-06-22T09:28:54;7.05;;;3.28;;
22094;SDS011;24083;55.670;37.568;2023-06-22T09:34:19;5.53;;;3.15;;
22094;SDS011;24083;55.670;37.568;2023-06-22T09:36:48;6.53;;;3.28;;
22094;SDS011;24083;55.670;37.568;2023-06-22T09:39:19;6.32;;;3.10;;
22094;SDS011;24083;55.670;37.568;2023-06-22T09:41:48;6.70;;;3.28;;
22094;SDS011;24083;55.670;37.568;2023-06-22T09:44:16;4.45;;;3.08;;
22094;SDS011;24083;55.670;37.568;2023-06-22T09:46:43;5.22;;;3.22;;
22094;SDS011;24083;55.670;37.568;2023-06-22T09:49:10;5.57;;;3.25;;
22094;SDS011;24083;55.670;37.568;2023-06-22T09:51:37;3.78;;;2.95;;
22094;SDS011;24083;55.670;37.568;2023-06-22T09:54:07;4.93;;;3.65;;
22094;SDS011;24083;55.670;37.568;2023-06-22T09:56:35;9.60;;;3.20;;
22094;SDS011;24083;55.670;37.568;2023-06-22T09:59:05;6.77;;;3.40;;
22094;SDS011;24083;55.670;37.568;2023-06-22T10:01:31;6.93;;;3.10;;
22094;SDS011;24083;55.670;37.568;2023-06-22T10:07:17;7.57;;;3.35;;
22094;SDS011;24083;55.670;37.568;2023-06-22T10:12:16;6.43;;;3.33;;
22094;SDS011;24083;55.670;37.568;2023-06-22T10:14:44;7.07;;;3.40;;
22094;SDS011;24083;55.670;37.568;2023-06-22T10:17:15;4.50;;;3.45;;
22094;SDS011;24083;55.670;37.568;2023-06-22T10:22:16;6.13;;;3.35;;
22094;SDS011;24083;55.670;37.568;2023-06-22T10:27:18;6.05;;;3.33;;
22094;SDS011;24083;55.670;37.568;2023-06-22T10:29:44;7.22;;;3.83;;
22094;SDS011;24083;55.670;37.568;2023-06-22T10:32:14;7.45;;;3.78;;
22094;SDS011;24083;55.670;37.568;2023-06-22T10:34:41;4.95;;;3.58;;
22094;SDS011;24083;55.670;37.568;2023-06-22T10:37:11;4.82;;;3.75;;
22094;SDS011;24083;55.670;37.568;2023-06-22T10:42:09;4.93;;;3.95;;
22094;SDS011;24083;55.670;37.568;2023-06-22T10:44:34;8.48;;;3.80;;
22094;SDS011;24083;55.670;37.568;2023-06-22T10:47:00;5.38;;;3.65;;
22094;SDS011;24083;55.670;37.568;2023-06-22T10:49:27;5.78;;;3.63;;
22094;SDS011;24083;55.670;37.568;2023-06-22T10:51:55;4.93;;;3.97;;
22094;SDS011;24083;55.670;37.568;2023-06-22T10:58:44;8.98;;;3.50;;
22094;SDS011;24083;55.670;37.568;2023-06-22T11:06:35;6.03;;;3.78;;
22094;SDS011;24083;55.670;37.568;2023-06-22T11:09:02;9.73;;;3.88;;
22094;SDS011;24083;55.670;37.568;2023-06-22T11:14:29;5.38;;;3.53;;
22094;SDS011;24083;55.670;37.568;2023-06-22T11:26:45;6.60;;;3.60;;
22094;SDS011;24083;55.670;37.568;2023-06-22T11:31:42;9.57;;;3.60;;
22094;SDS011;24083;55.670;37.568;2023-06-22T11:34:09;4.43;;;3.50;;
22094;SDS011;24083;55.670;37.568;2023-06-22T11:42:24;7.30;;;3.95;;
22094;SDS011;24083;55.670;37.568;2023-06-22T11:44:50;5.60;;;3.42;;
22094;SDS011;24083;55.670;37.568;2023-06-22T11:47:17;7.25;;;3.70;;
22094;SDS011;24083;55.670;37.568;2023-06-22T11:49:43;7.07;;;3.73;;
22094;SDS011;24083;55.670;37.568;2023-06-22T11:55:11;6.13;;;3.47;;
22094;SDS011;24083;55.670;37.568;2023-06-22T11:57:51;8.55;;;3.70;;
22094;SDS011;24083;55.670;37.568;2023-06-22T12:00:21;6.40;;;3.85;;
22094;SDS011;24083;55.670;37.568;2023-06-22T12:02:54;5.43;;;3.50;;
22094;SDS011;24083;55.670;37.568;2023-06-22T12:05:21;6.68;;;3.53;;
22094;SDS011;24083;55.670;37.568;2023-06-22T12:07:48;5.15;;;3.90;;
22094;SDS011;24083;55.670;37.568;2023-06-22T12:10:20;5.93;;;3.80;;
22094;SDS011;24083;55.670;37.568;2023-06-22T12:12:49;6.88;;;3.60;;
22094;SDS011;24083;55.670;37.568;2023-06-22T12:18:11;4.80;;;3.70;;
22094;SDS011;24083;55.670;37.568;2023-06-22T12:20:40;9.15;;;3.80;;
22094;SDS011;24083;55.670;37.568;2023-06-22T12:23:12;6.75;;;3.65;;
22094;SDS011;24083;55.670;37.568;2023-06-22T12:31:29;5.10;;;3.38;;
22094;SDS011;24083;55.670;37.568;2023-06-22T12:34:04;4.07;;;3.50;;
22094;SDS011;24083;55.670;37.568;2023-06-22T12:36:31;7.13;;;3.72;;
22094;SDS011;24083;55.670;37.568;2023-06-22T12:38:58;4.70;;;3.50;;
22094;SDS011;24083;55.670;37.568;2023-06-22T12:44:22;8.50;;;3.72;;
22094;SDS011;24083;55.670;37.568;2023-06-22T12:46:53;7.13;;;3.60;;
22094;SDS011;24083;55.670;37.568;2023-06-22T12:49:30;5.07;;;3.30;;
22094;SDS011;24083;55.670;37.568;2023-06-22T12:52:00;5.55;;;3.47;;
22094;SDS011;24083;55.670;37.568;2023-06-22T12:56:56;5.07;;;3.20;;
22094;SDS011;24083;55.670;37.568;2023-06-22T13:01:54;8.80;;;3.58;;
22094;SDS011;24083;55.670;37.568;2023-06-22T13:06:54;7.45;;;3.55;;
22094;SDS011;24083;55.670;37.568;2023-06-22T13:11:55;5.32;;;3.38;;
22094;SDS011;24083;55.670;37.568;2023-06-22T13:14:24;6.93;;;3.45;;
22094;SDS011;24083;55.670;37.568;2023-06-22T13:16:52;5.65;;;3.88;;
22094;SDS011;24083;55.670;37.568;2023-06-22T13:19:18;6.95;;;3.67;;
22094;SDS011;24083;55.670;37.568;2023-06-22T13:34:27;5.50;;;3.40;;
22094;SDS011;24083;55.670;37.568;2023-06-22T13:39:30;9.38;;;3.70;;
22094;SDS011;24083;55.670;37.568;2023-06-22T13:44:51;8.00;;;3.80;;
22094;SDS011;24083;55.670;37.568;2023-06-22T13:47:21;6.47;;;3.70;;
22094;SDS011;24083;55.670;37.568;2023-06-22T13:50:05;6.57;;;3.75;;
22094;SDS011;24083;55.670;37.568;2023-06-22T13:52:39;9.63;;;4.00;;
22094;SDS011;24083;55.670;37.568;2023-06-22T13:55:11;5.43;;;3.67;;
22094;SDS011;24083;55.670;37.568;2023-06-22T13:58:32;4.82;;;3.90;;
22094;SDS011;24083;55.670;37.568;2023-06-22T14:01:05;8.55;;;5.80;;
22094;SDS011;24083;55.670;37.568;2023-06-22T14:03:54;5.55;;;3.90;;
22094;SDS011;24083;55.670;37.568;2023-06-22T14:06:27;5.10;;;3.95;;
22094;SDS011;24083;55.670;37.568;2023-06-22T14:08:57;7.65;;;4.00;;
22094;SDS011;24083;55.670;37.568;2023-06-22T14:11:38;7.00;;;3.70;;
22094;SDS011;24083;55.670;37.568;2023-06-22T14:14:08;4.20;;;3.80;;
22094;SDS011;24083;55.670;37.568;2023-06-22T14:16:34;8.23;;;3.75;;
22094;SDS011;24083;55.670;37.568;2023-06-22T14:19:02;7.28;;;3.83;;
22094;SDS011;24083;55.670;37.568;2023-06-22T14:21:36;5.78;;;3.80;;
22094;SDS011;24083;55.670;37.568;2023-06-22T14:24:08;5.63;;;3.92;;
22094;SDS011;24083;55.670;37.568;2023-06-22T14:26:34;5.38;;;3.60;;
22094;SDS011;24083;55.670;37.568;2023-06-22T14:29:07;8.32;;;3.85;;
22094;SDS011;24083;55.670;37.568;2023-06-22T14:31:46;8.70;;;3.72;;
22094;SDS011;24083;55.670;37.568;2023-06-22T14:34:15;6.32;;;3.60;;
22094;SDS011;24083;55.670;37.568;2023-06-22T14:36:44;5.50;;;3.75;;
22094;SDS011;24083;55.670;37.568;2023-06-22T14:39:15;4.38;;;3.60;;
22094;SDS011;24083;55.670;37.568;2023-06-22T14:41:47;5.95;;;3.95;;
22094;SDS011;24083;55.670;37.568;2023-06-22T14:44:19;8.43;;;3.58;;
22094;SDS011;24083;55.670;37.568;2023-06-22T14:49:48;7.65;;;3.80;;
22094;SDS011;24083;55.670;37.568;2023-06-22T14:52:20;7.00;;;4.07;;
22094;SDS011;24083;55.670;37.568;2023-06-22T14:54:49;5.35;;;3.90;;
22094;SDS011;24083;55.670;37.568;2023-06-22T14:57:19;6.70;;;3.97;;
22094;SDS011;24083;55.670;37.568;2023-06-22T14:59:49;4.25;;;3.55;;
22094;SDS011;24083;55.670;37.568;2023-06-22T15:02:16;5.47;;;3.90;;
22094;SDS011;24083;55.670;37.568;2023-06-22T15:05:01;8.07;;;4.00;;
22094;SDS011;24083;55.670;37.568;2023-06-22T15:07:44;8.35;;;3.55;;
22094;SDS011;24083;55.670;37.568;2023-06-22T15:10:15;5.43;;;3.80;;
22094;SDS011;24083;55.670;37.568;2023-06-22T15:12:44;10.02;;;4.00;;
22094;SDS011;24083;55.670;37.568;2023-06-22T15:15:17;7.10;;;3.60;;
22094;SDS011;24083;55.670;37.568;2023-06-22T15:17:46;5.85;;;3.60;;
22094;SDS011;24083;55.670;37.568;2023-06-22T15:20:14;5.75;;;3.72;;
22094;SDS011;24083;55.670;37.568;2023-06-22T15:26:12;9.68;;;4.20;;
22094;SDS011;24083;55.670;37.568;2023-06-22T15:28:43;6.60;;;3.75;;
22094;SDS011;24083;55.670;37.568;2023-06-22T15:31:41;5.82;;;3.63;;
22094;SDS011;24083;55.670;37.568;2023-06-22T15:34:16;6.00;;;3.95;;
22094;SDS011;24083;55.670;37.568;2023-06-22T15:36:48;7.18;;;3.75;;
22094;SDS011;24083;55.670;37.568;2023-06-22T15:39:17;5.55;;;3.90;;
22094;SDS011;24083;55.670;37.568;2023-06-22T15:44:46;7.15;;;4.00;;
22094;SDS011;24083;55.670;37.568;2023-06-22T15:47:26;7.25;;;4.20;;
22094;SDS011;24083;55.670;37.568;2023-06-22T15:49:52;9.65;;;4.18;;
22094;SDS011;24083;55.670;37.568;2023-06-22T15:52:32;8.52;;;4.00;;
22094;SDS011;24083;55.670;37.568;2023-06-22T15:55:04;7.13;;;4.10;;
22094;SDS011;24083;55.670;37.568;2023-06-22T16:07:13;6.18;;;4.00;;
22094;SDS011;24083;55.670;37.568;2023-06-22T16:09:41;5.53;;;4.10;;
22094;SDS011;24083;55.670;37.568;2023-06-22T16:12:11;7.50;;;4.32;;
22094;SDS011;24083;55.670;37.568;2023-06-22T16:21:39;5.53;;;4.32;;
22094;SDS011;24083;55.670;37.568;2023-06-22T16:24:13;5.15;;;4.00;;
22094;SDS011;24083;55.670;37.568;2023-06-22T16:33:24;16.58;;;4.50;;
22094;SDS011;24083;55.670;37.568;2023-06-22T16:51:12;9.73;;;3.73;;
22094;SDS011;24083;55.670;37.568;2023-06-22T16:53:57;13.00;;;3.50;;
22094;SDS011;24083;55.670;37.568;2023-06-22T16:59:38;12.15;;;3.55;;
22094;SDS011;24083;55.670;37.568;2023-06-22T17:02:08;11.80;;;3.72;;
22094;SDS011;24083;55.670;37.568;2023-06-22T17:05:19;10.00;;;4.00;;
22094;SDS011;24083;55.670;37.568;2023-06-22T17:21:48;9.57;;;3.78;;
22094;SDS011;24083;55.670;37.568;2023-06-22T17:24:50;10.65;;;3.90;;
22094;SDS011;24083;55.670;37.568;2023-06-22T17:27:28;9.95;;;3.72;;
22094;SDS011;24083;55.670;37.568;2023-06-22T17:30:09;8.48;;;3.70;;
22094;SDS011;24083;55.670;37.568;2023-06-22T17:32:47;9.98;;;4.07;;
22094;SDS011;24083;55.670;37.568;2023-06-22T17:38:35;9.25;;;3.55;;
22094;SDS011;24083;55.670;37.568;2023-06-22T17:51:17;10.32;;;3.90;;
22094;SDS011;24083;55.670;37.568;2023-06-22T17:54:20;12.25;;;3.47;;
22094;SDS011;24083;55.670;37.568;2023-06-22T17:56:51;11.90;;;3.63;;
22094;SDS011;24083;55.670;37.568;2023-06-22T18:05:06;8.82;;;3.60;;
22094;SDS011;24083;55.670;37.568;2023-06-22T18:07:45;9.30;;;3.60;;
22094;SDS011;24083;55.670;37.568;2023-06-22T18:10:15;10.07;;;3.80;;
22094;SDS011;24083;55.670;37.568;2023-06-22T18:12:45;8.13;;;3.50;;
22094;SDS011;24083;55.670;37.568;2023-06-22T18:15:28;8.20;;;3.30;;
22094;SDS011;24083;55.670;37.568;2023-06-22T18:17:59;7.45;;;3.45;;
22094;SDS011;24083;55.670;37.568;2023-06-22T18:23:39;9.27;;;3.50;;
22094;SDS011;24083;55.670;37.568;2023-06-22T18:26:26;9.27;;;3.55;;
22094;SDS011;24083;55.670;37.568;2023-06-22T18:28:54;8.48;;;3.47;;
22094;SDS011;24083;55.670;37.568;2023-06-22T18:31:31;10.98;;;3.60;;
22094;SDS011;24083;55.670;37.568;2023-06-22T18:34:14;7.55;;;3.55;;
22094;SDS011;24083;55.670;37.568;2023-06-22T18:39:39;9.88;;;3.47;;
22094;SDS011;24083;55.670;37.568;2023-06-22T18:42:13;11.52;;;3.25;;
22094;SDS011;24083;55.670;37.568;2023-06-22T18:44:42;7.85;;;3.17;;
22094;SDS011;24083;55.670;37.568;2023-06-22T18:47:09;11.43;;;3.28;;
22094;SDS011;24083;55.670;37.568;2023-06-22T18:54:45;9.25;;;3.10;;
22094;SDS011;24083;55.670;37.568;2023-06-22T18:57:22;12.07;;;3.22;;
22094;SDS011;24083;55.670;37.568;2023-06-22T19:02:48;9.27;;;2.90;;
22094;SDS011;24083;55.670;37.568;2023-06-22T19:05:39;5.25;;;2.78;;
22094;SDS011;24083;55.670;37.568;2023-06-22T19:08:08;5.65;;;2.97;;
22094;SDS011;24083;55.670;37.568;2023-06-22T19:21:30;7.05;;;3.28;;
22094;SDS011;24083;55.670;37.568;2023-06-22T19:23:56;12.07;;;3.28;;
22094;SDS011;24083;55.670;37.568;2023-06-22T19:31:54;8.60;;;3.13;;
22094;SDS011;24083;55.670;37.568;2023-06-22T19:36:59;5.63;;;2.63;;
22094;SDS011;24083;55.670;37.568;2023-06-22T19:39:25;7.40;;;3.00;;
22094;SDS011;24083;55.670;37.568;2023-06-22T19:42:03;4.78;;;3.08;;
22094;SDS011;24083;55.670;37.568;2023-06-22T19:47:24;5.22;;;2.60;;
22094;SDS011;24083;55.670;37.568;2023-06-22T19:50:04;6.90;;;3.10;;
22094;SDS011;24083;55.670;37.568;2023-06-22T19:52:39;10.70;;;2.85;;
22094;SDS011;24083;55.670;37.568;2023-06-22T19:55:08;4.40;;;2.80;;
22094;SDS011;24083;55.670;37.568;2023-06-22T19:57:44;9.85;;;3.10;;
22094;SDS011;24083;55.670;37.568;2023-06-22T20:00:19;6.03;;;3.05;;
22094;SDS011;24083;55.670;37.568;2023-06-22T20:02:49;7.38;;;2.88;;
22094;SDS011;24083;55.670;37.568;2023-06-22T20:05:19;6.68;;;3.10;;
22094;SDS011;24083;55.670;37.568;2023-06-22T20:07:47;5.28;;;3.08;;
22094;SDS011;24083;55.670;37.568;2023-06-22T20:10:15;10.63;;;3.60;;
22094;SDS011;24083;55.670;37.568;2023-06-22T20:12:50;10.45;;;4.03;;
22094;SDS011;24083;55.670;37.568;2023-06-22T20:15:26;5.72;;;3.47;;
22094;SDS011;24083;55.670;37.568;2023-06-22T20:17:53;7.47;;;3.60;;
22094;SDS011;24083;55.670;37.568;2023-06-22T20:20:33;8.70;;;3.58;;
22094;SDS011;24083;55.670;37.568;2023-06-22T20:23:03;7.22;;;3.50;;
22094;SDS011;24083;55.670;37.568;2023-06-22T20:25:36;11.98;;;4.00;;
22094;SDS011;24083;55.670;37.568;2023-06-22T20:28:24;9.25;;;3.80;;
22094;SDS011;24083;55.670;37.568;2023-06-22T20:33:31;9.30;;;3.67;;
22094;SDS011;24083;55.670;37.568;2023-06-22T20:35:59;10.18;;;4.00;;
22094;SDS011;24083;55.670;37.568;2023-06-22T20:38:27;9.18;;;4.03;;
22094;SDS011;24083;55.670;37.568;2023-06-22T20:40:55;9.93;;;3.92;;
22094;SDS011;24083;55.670;37.568;2023-06-22T20:43:23;7.03;;;3.60;;
22094;SDS011;24083;55.670;37.568;2023-06-22T20:45:49;8.45;;;3.90;;
22094;SDS011;24083;55.670;37.568;2023-06-22T20:48:24;7.05;;;4.18;;
22094;SDS011;24083;55.670;37.568;2023-06-22T20:50:56;6.95;;;4.03;;
22094;SDS011;24083;55.670;37.568;2023-06-22T20:53:42;10.30;;;4.20;;
22094;SDS011;24083;55.670;37.568;2023-06-22T20:56:08;7.75;;;4.10;;
22094;SDS011;24083;55.670;37.568;2023-06-22T20:58:36;11.10;;;4.03;;
22094;SDS011;24083;55.670;37.568;2023-06-22T21:01:10;10.63;;;4.60;;
22094;SDS011;24083;55.670;37.568;2023-06-22T21:03:44;11.27;;;4.18;;
22094;SDS011;24083;55.670;37.568;2023-06-22T21:06:13;10.02;;;4.30;;
22094;SDS011;24083;55.670;37.568;2023-06-22T21:09:11;5.43;;;4.00;;
22094;SDS011;24083;55.670;37.568;2023-06-22T21:11:53;9.43;;;4.00;;
22094;SDS011;24083;55.670;37.568;2023-06-22T21:14:29;11.65;;;3.63;;
22094;SDS011;24083;55.670;37.568;2023-06-22T21:17:03;6.85;;;3.40;;
22094;SDS011;24083;55.670;37.568;2023-06-22T21:19:33;8.25;;;3.50;;
22094;SDS011;24083;55.670;37.568;2023-06-22T21:27:31;7.97;;;3.63;;
22094;SDS011;24083;55.670;37.568;2023-06-22T21:32:39;8.57;;;3.67;;
22094;SDS011;24083;55.670;37.568;2023-06-22T21:41:54;11.43;;;3.85;;
22094;SDS011;24083;55.670;37.568;2023-06-22T21:47:31;9.63;;;3.92;;
22094;SDS011;24083;55.670;37.568;2023-06-22T21:49:57;8.73;;;3.97;;
22094;SDS011;24083;55.670;37.568;2023-06-22T21:52:23;13.93;;;4.13;;
22094;SDS011;24083;55.670;37.568;2023-06-22T21:54:53;9.20;;;4.43;;
22094;SDS011;24083;55.670;37.568;2023-06-22T21:57:25;7.28;;;3.55;;
22094;SDS011;24083;55.670;37.568;2023-06-22T21:59:59;11.60;;;4.25;;
22094;SDS011;24083;55.670;37.568;2023-06-22T22:02:26;7.80;;;3.50;;
22094;SDS011;24083;55.670;37.568;2023-06-22T22:04:52;8.65;;;3.22;;
22094;SDS011;24083;55.670;37.568;2023-06-22T22:07:18;8.27;;;3.60;;
22094;SDS011;24083;55.670;37.568;2023-06-22T22:09:44;4.57;;;3.13;;
22094;SDS011;24083;55.670;37.568;2023-06-22T22:12:11;11.75;;;3.00;;
22094;SDS011;24083;55.670;37.568;2023-06-22T22:14:38;6.35;;;2.85;;
22094;SDS011;24083;55.670;37.568;2023-06-22T22:17:07;7.57;;;3.00;;
22094;SDS011;24083;55.670;37.568;2023-06-22T22:19:35;5.88;;;3.22;;
22094;SDS011;24083;55.670;37.568;2023-06-22T22:24:31;5.68;;;3.17;;
22094;SDS011;24083;55.670;37.568;2023-06-22T22:26:57;6.07;;;2.97;;
22094;SDS011;24083;55.670;37.568;2023-06-22T22:29:25;8.50;;;3.00;;
22094;SDS011;24083;55.670;37.568;2023-06-22T22:31:54;7.68;;;3.20;;
22094;SDS011;24083;55.670;37.568;2023-06-22T22:34:22;9.10;;;3.20;;
22094;SDS011;24083;55.670;37.568;2023-06-22T22:40:29;8.05;;;3.15;;
22094;SDS011;24083;55.670;37.568;2023-06-22T22:42:56;10.68;;;4.05;;
22094;SDS011;24083;55.670;37.568;2023-06-22T22:45:22;10.00;;;4.70;;
22094;SDS011;24083;55.670;37.568;2023-06-22T22:47:54;19.98;;;7.97;;
22094;SDS011;24083;55.670;37.568;2023-06-22T22:50:27;22.70;;;9.40;;
22094;SDS011;24083;55.670;37.568;2023-06-22T22:52:55;41.20;;;14.50;;
22094;SDS011;24083;55.670;37.568;2023-06-22T22:55:23;40.45;;;14.63;;
22094;SDS011;24083;55.670;37.568;2023-06-22T22:58:09;49.38;;;18.17;;
22094;SDS011;24083;55.670;37.568;2023-06-22T23:00:36;56.17;;;23.08;;
22094;SDS011;24083;55.670;37.568;2023-06-22T23:03:04;68.25;;;26.35;;
22094;SDS011;24083;55.670;37.568;2023-06-22T23:05:31;74.70;;;26.83;;
22094;SDS011;24083;55.670;37.568;2023-06-22T23:08:13;68.38;;;27.27;;
22094;SDS011;24083;55.670;37.568;2023-06-22T23:10:39;77.10;;;28.85;;
22094;SDS011;24083;55.670;37.568;2023-06-22T23:15:49;68.88;;;26.65;;
22094;SDS011;24083;55.670;37.568;2023-06-22T23:20:45;66.72;;;24.40;;
22094;SDS011;24083;55.670;37.568;2023-06-22T23:25:42;43.38;;;16.73;;
22094;SDS011;24083;55.670;37.568;2023-06-22T23:30:42;34.05;;;11.70;;
22094;SDS011;24083;55.670;37.568;2023-06-22T23:33:14;28.75;;;10.88;;
22094;SDS011;24083;55.670;37.568;2023-06-22T23:35:42;22.00;;;7.60;;
22094;SDS011;24083;55.670;37.568;2023-06-22T23:38:11;17.75;;;7.10;;
22094;SDS011;24083;55.670;37.568;2023-06-22T23:40:58;13.27;;;5.32;;
22094;SDS011;24083;55.670;37.568;2023-06-22T23:43:27;11.75;;;5.70;;
22094;SDS011;24083;55.670;37.568;2023-06-22T23:45:54;11.02;;;4.85;;
22094;SDS011;24083;55.670;37.568;2023-06-22T23:48:22;14.20;;;4.82;;
22094;SDS011;24083;55.670;37.568;2023-06-22T23:50:50;8.52;;;3.67;;
22094;SDS011;24083;55.670;37.568;2023-06-22T23:55:49;6.10;;;3.17;;
22094;SDS011;24083;55.670;37.568;2023-06-22T23:58:19;6.47;;;2.78;;
